Terminal Aerodrome Forecast
Issued by NWS Albany, NY

Home | Current Version | Previous Version | Text Only | Print | Product List | Glossary On
Versions: 1 2 3 4 5 6 7 8 9 10 11 12 13 14 15 16 17 18 19 20 21 22 23 24 25 26 27 28
000
FTUS41 KALY 241228 AAA
TAFALB
TAF AMD
KALB 241228Z 2412/2512 35009KT 6SM -FZRAPL BR BKN010 OVC040
      TEMPO 2412/2415 3SM -FZDZ OVC008
     FM241700 35008KT 5SM -RAPL BR BKN010 OVC030
     FM242100 34008KT 2SM -SNPL BR BKN009 OVC015
     FM250500 31011KT P6SM VCSH BKN035 OVC050=

USA.gov is the U.S. government's official web portal to all federal, state and local government web resources and services.